createdAt,value
2023-02-13T00:01:13.677Z,2.83
2023-02-13T00:03:40.225Z,2.90
2023-02-13T00:06:06.872Z,2.60
2023-02-13T00:08:33.751Z,2.15
2023-02-13T00:11:00.288Z,1.77
2023-02-13T00:13:26.933Z,2.67
2023-02-13T00:16:00.735Z,2.15
2023-02-13T00:18:27.622Z,2.35
2023-02-13T00:21:07.349Z,1.75
2023-02-13T00:23:34.597Z,1.88
2023-02-13T00:26:01.616Z,2.00
2023-02-13T00:28:28.222Z,2.20
2023-02-13T00:30:54.859Z,1.75
2023-02-13T00:33:21.467Z,1.90
2023-02-13T00:35:47.937Z,1.92
2023-02-13T00:38:14.408Z,1.98
2023-02-13T00:40:40.981Z,2.05
2023-02-13T00:43:07.432Z,2.25
2023-02-13T00:45:34.134Z,1.65
2023-02-13T00:48:00.572Z,1.90
2023-02-13T00:50:27.092Z,2.10
2023-02-13T00:52:53.568Z,1.60
2023-02-13T00:55:20.024Z,1.90
2023-02-13T00:57:46.545Z,1.80
2023-02-13T01:00:13.335Z,1.90
2023-02-13T01:02:39.785Z,1.83
2023-02-13T01:05:06.486Z,2.05
2023-02-13T01:07:32.968Z,1.73
2023-02-13T01:09:59.461Z,1.92
2023-02-13T01:12:25.989Z,2.40
2023-02-13T01:14:52.658Z,2.40
2023-02-13T01:17:19.168Z,2.53
2023-02-13T01:19:45.665Z,2.15
2023-02-13T01:22:12.149Z,1.90
2023-02-13T01:24:38.615Z,2.17
2023-02-13T01:27:05.110Z,2.63
2023-02-13T01:29:31.658Z,2.45
2023-02-13T01:31:58.297Z,2.40
2023-02-13T01:34:24.833Z,1.95
2023-02-13T01:36:51.316Z,2.28
2023-02-13T01:39:17.780Z,2.30
2023-02-13T01:41:44.307Z,2.45
2023-02-13T01:44:29.274Z,2.17
2023-02-13T01:46:55.816Z,2.67
2023-02-13T01:49:25.032Z,2.42
2023-02-13T01:51:53.750Z,2.03
2023-02-13T01:54:22.597Z,1.80
2023-02-13T01:56:52.099Z,2.03
2023-02-13T01:59:24.940Z,2.95
2023-02-13T02:01:51.611Z,2.67
2023-02-13T02:04:22.744Z,2.40
2023-02-13T02:06:55.109Z,2.50
2023-02-13T02:09:24.054Z,3.15
2023-02-13T02:12:06.870Z,3.28
2023-02-13T02:14:33.754Z,3.58
2023-02-13T02:17:00.254Z,2.67
2023-02-13T02:19:49.805Z,3.28
2023-02-13T02:22:29.204Z,2.63
2023-02-13T02:25:14.632Z,3.10
2023-02-13T02:27:52.425Z,2.45
2023-02-13T02:30:25.190Z,2.92
2023-02-13T02:33:03.418Z,2.92
2023-02-13T02:35:38.926Z,2.60
2023-02-13T02:38:20.349Z,3.30
2023-02-13T02:40:59.132Z,2.60
2023-02-13T02:43:44.372Z,2.75
2023-02-13T02:46:22.067Z,3.50
2023-02-13T02:49:14.935Z,2.45
2023-02-13T02:51:48.689Z,2.67
2023-02-13T02:57:03.672Z,2.53
2023-02-13T02:59:49.375Z,2.85
2023-02-13T03:02:34.896Z,2.53
2023-02-13T03:05:20.041Z,2.40
2023-02-13T03:07:46.543Z,2.97
2023-02-13T03:10:35.381Z,2.72
2023-02-13T03:13:23.045Z,2.35
2023-02-13T03:16:12.453Z,3.00
2023-02-13T03:18:59.266Z,2.70
2023-02-13T03:22:01.576Z,3.55
2023-02-13T03:24:31.599Z,2.47
2023-02-13T03:27:04.230Z,2.75
2023-02-13T03:30:04.588Z,2.55
2023-02-13T03:32:37.204Z,3.03
2023-02-13T03:35:28.258Z,2.72
2023-02-13T03:37:57.708Z,2.78
2023-02-13T03:40:34.424Z,2.75
2023-02-13T03:43:11.115Z,2.88
2023-02-13T03:45:53.876Z,2.55
2023-02-13T03:48:45.968Z,3.13
2023-02-13T03:51:14.424Z,2.38
2023-02-13T03:53:43.025Z,3.42
2023-02-13T03:56:29.441Z,2.33
2023-02-13T03:59:16.479Z,3.88
2023-02-13T04:01:57.360Z,2.72
2023-02-13T04:04:27.042Z,2.53
2023-02-13T04:07:00.025Z,2.40
2023-02-13T04:09:27.627Z,2.75
2023-02-13T04:11:54.054Z,2.53
2023-02-13T04:14:30.195Z,3.13
2023-02-13T04:16:59.435Z,3.55
2023-02-13T04:19:26.749Z,2.97
2023-02-13T04:21:57.941Z,2.53
2023-02-13T04:24:25.019Z,2.55
2023-02-13T04:26:52.142Z,2.58
2023-02-13T04:29:18.735Z,3.53
2023-02-13T04:31:45.429Z,2.70
2023-02-13T04:34:12.004Z,3.00
2023-02-13T04:36:38.548Z,3.53
2023-02-13T04:39:05.056Z,2.58
2023-02-13T04:41:31.678Z,2.33
2023-02-13T04:43:58.149Z,2.05
2023-02-13T04:46:24.634Z,2.97
2023-02-13T04:48:51.291Z,2.45
2023-02-13T04:51:17.810Z,2.47
2023-02-13T04:53:44.262Z,2.95
2023-02-13T04:56:10.822Z,2.67
2023-02-13T04:58:37.330Z,2.75
2023-02-13T05:01:11.299Z,2.97
2023-02-13T05:03:37.784Z,2.38
2023-02-13T05:06:04.296Z,2.70
2023-02-13T05:08:30.770Z,2.08
2023-02-13T05:10:57.475Z,2.22
2023-02-13T05:13:24.105Z,2.97
2023-02-13T05:15:52.608Z,2.50
2023-02-13T05:18:19.466Z,2.85
2023-02-13T05:21:05.952Z,2.60
2023-02-13T05:23:32.742Z,2.72
2023-02-13T05:25:59.322Z,2.90
2023-02-13T05:28:44.696Z,2.45
2023-02-13T05:31:11.354Z,2.38
2023-02-13T05:33:37.926Z,2.67
2023-02-13T05:36:04.556Z,3.13
2023-02-13T05:38:31.062Z,2.28
2023-02-13T05:41:01.616Z,2.38
2023-02-13T05:43:28.739Z,3.53
2023-02-13T05:46:02.538Z,2.47
2023-02-13T05:48:29.018Z,2.60
2023-02-13T05:50:55.811Z,3.22
2023-02-13T05:53:22.473Z,2.83
2023-02-13T05:55:51.129Z,3.78
2023-02-13T05:58:18.469Z,3.80
2023-02-13T06:00:45.303Z,3.55
2023-02-13T06:03:12.124Z,2.25
2023-02-13T06:05:38.597Z,3.38
2023-02-13T06:08:05.138Z,2.83
2023-02-13T06:10:31.621Z,2.90
2023-02-13T06:12:58.078Z,2.65
2023-02-13T06:15:24.648Z,3.50
2023-02-13T06:17:51.186Z,2.67
2023-02-13T06:20:17.709Z,3.03
2023-02-13T06:22:44.200Z,3.17
2023-02-13T06:25:10.676Z,2.95
2023-02-13T06:27:37.162Z,3.10
2023-02-13T06:30:03.737Z,3.45
2023-02-13T06:32:30.224Z,3.30
2023-02-13T06:34:56.683Z,2.90
2023-02-13T06:37:23.250Z,4.13
2023-02-13T06:39:49.737Z,4.38
2023-02-13T06:42:16.298Z,4.50
2023-02-13T06:44:42.917Z,3.95
2023-02-13T06:47:09.421Z,4.00
2023-02-13T06:49:35.910Z,4.40
2023-02-13T06:52:02.514Z,3.97
2023-02-13T06:54:45.895Z,4.03
2023-02-13T06:57:13.093Z,3.60
2023-02-13T06:59:39.581Z,3.50
2023-02-13T07:02:06.042Z,3.78
2023-02-13T07:04:32.501Z,4.70
2023-02-13T07:06:58.998Z,3.72
2023-02-13T07:09:25.459Z,3.70
2023-02-13T07:11:52.423Z,3.75
2023-02-13T07:14:18.981Z,3.92
2023-02-13T07:16:45.562Z,4.43
2023-02-13T07:19:12.026Z,5.55
2023-02-13T07:21:38.554Z,4.00
2023-02-13T07:24:07.892Z,4.40
2023-02-13T07:26:34.545Z,4.72
2023-02-13T07:29:11.575Z,3.85
2023-02-13T07:31:39.654Z,4.80
2023-02-13T07:34:06.531Z,5.07
2023-02-13T07:36:33.010Z,5.93
2023-02-13T07:38:59.504Z,4.60
2023-02-13T07:41:27.040Z,3.92
2023-02-13T07:43:53.955Z,5.43
2023-02-13T07:46:20.539Z,5.18
2023-02-13T07:48:47.087Z,6.15
2023-02-13T07:51:13.613Z,5.20
2023-02-13T07:53:40.100Z,4.38
2023-02-13T07:56:10.161Z,7.40
2023-02-13T07:58:37.569Z,5.63
2023-02-13T08:01:08.162Z,5.85
2023-02-13T08:03:34.777Z,5.07
2023-02-13T08:06:01.361Z,6.63
2023-02-13T08:08:27.930Z,6.05
2023-02-13T08:11:13.026Z,6.05
2023-02-13T08:13:39.959Z,5.50
2023-02-13T08:16:06.554Z,6.63
2023-02-13T08:18:33.049Z,6.47
2023-02-13T08:21:01.456Z,6.05
2023-02-13T08:23:27.943Z,7.35
2023-02-13T08:25:55.638Z,8.63
2023-02-13T08:28:22.515Z,8.32
2023-02-13T08:30:49.077Z,8.68
2023-02-13T08:33:15.540Z,9.05
2023-02-13T08:35:42.061Z,8.85
2023-02-13T08:38:09.311Z,9.23
2023-02-13T08:40:35.836Z,9.88
2023-02-13T08:43:04.352Z,11.07
2023-02-13T08:45:31.287Z,11.63
2023-02-13T08:47:58.157Z,12.52
2023-02-13T08:50:24.732Z,10.88
2023-02-13T08:52:51.190Z,11.63
2023-02-13T08:55:17.720Z,13.52
2023-02-13T08:57:47.006Z,13.10
2023-02-13T09:00:13.774Z,14.45
2023-02-13T09:02:40.353Z,14.65
2023-02-13T09:05:06.941Z,15.63
2023-02-13T09:07:33.404Z,13.38
2023-02-13T09:09:59.889Z,13.15
2023-02-13T09:12:26.354Z,15.60
2023-02-13T09:14:52.804Z,14.65
2023-02-13T09:17:20.199Z,15.27
2023-02-13T09:19:47.348Z,15.13
2023-02-13T09:22:15.512Z,15.93
2023-02-13T09:24:41.989Z,15.48
2023-02-13T09:27:08.850Z,16.55
2023-02-13T09:29:35.381Z,16.30
2023-02-13T09:32:01.965Z,16.70
2023-02-13T09:34:28.490Z,16.83
2023-02-13T09:36:55.258Z,16.38
2023-02-13T09:39:21.717Z,13.65
2023-02-13T09:41:49.977Z,16.83
2023-02-13T09:44:34.650Z,14.02
2023-02-13T09:47:04.451Z,15.13
2023-02-13T09:49:32.348Z,17.27
2023-02-13T09:51:58.917Z,16.65
2023-02-13T09:54:27.129Z,15.68
2023-02-13T09:57:02.952Z,17.45
2023-02-13T09:59:35.369Z,15.93
2023-02-13T10:02:08.271Z,14.07
2023-02-13T10:04:38.061Z,12.43
2023-02-13T10:07:12.232Z,18.48
2023-02-13T10:09:51.235Z,15.57
2023-02-13T10:12:20.857Z,16.02
2023-02-13T10:15:11.489Z,14.25
2023-02-13T10:17:50.586Z,14.85
2023-02-13T10:20:30.646Z,14.48
2023-02-13T10:23:01.027Z,13.07
2023-02-13T10:25:28.714Z,13.90
2023-02-13T10:28:07.636Z,15.75
2023-02-13T10:30:37.105Z,16.27
2023-02-13T10:33:19.137Z,15.80
2023-02-13T10:35:51.528Z,17.08
2023-02-13T10:38:20.439Z,15.77
2023-02-13T10:40:52.946Z,17.25
2023-02-13T10:43:21.112Z,17.35
2023-02-13T10:46:03.250Z,16.60
2023-02-13T10:48:39.041Z,17.25
2023-02-13T10:51:24.145Z,17.83
2023-02-13T10:53:56.387Z,17.15
2023-02-13T10:56:22.899Z,18.02
2023-02-13T10:58:57.399Z,17.00
2023-02-13T11:01:23.897Z,17.98
2023-02-13T11:04:00.598Z,16.52
2023-02-13T11:06:27.164Z,17.20
2023-02-13T11:08:53.805Z,17.63
2023-02-13T11:20:30.318Z,16.75
2023-02-13T11:23:09.812Z,16.77
2023-02-13T11:25:36.282Z,17.70
2023-02-13T11:28:11.353Z,17.10
2023-02-13T11:30:38.577Z,17.00
2023-02-13T11:33:06.645Z,17.48
2023-02-13T11:35:34.649Z,17.33
2023-02-13T11:38:10.336Z,19.90
2023-02-13T11:40:36.956Z,17.20
2023-02-13T11:43:06.648Z,18.42
2023-02-13T11:45:33.669Z,18.23
2023-02-13T11:48:00.223Z,15.80
2023-02-13T11:50:26.698Z,16.85
2023-02-13T11:52:58.204Z,17.75
2023-02-13T11:55:43.494Z,16.48
2023-02-13T11:58:16.193Z,16.63
2023-02-13T12:00:43.354Z,16.48
2023-02-13T12:03:22.100Z,16.95
2023-02-13T12:06:18.648Z,18.92
2023-02-13T12:08:46.858Z,18.58
2023-02-13T12:11:35.117Z,18.23
2023-02-13T12:14:02.293Z,16.13
2023-02-13T12:16:30.990Z,18.48
2023-02-13T12:19:00.115Z,17.25
2023-02-13T12:21:55.889Z,18.70
2023-02-13T12:24:42.109Z,17.92
2023-02-13T12:27:23.626Z,17.65
2023-02-13T12:30:09.028Z,19.55
2023-02-13T12:32:47.465Z,19.25
2023-02-13T12:35:13.905Z,18.15
2023-02-13T12:37:58.063Z,19.38
2023-02-13T12:42:58.823Z,17.05
2023-02-13T12:45:31.806Z,18.50
2023-02-13T12:48:04.522Z,18.02
2023-02-13T12:50:43.270Z,16.60
2023-02-13T12:53:20.078Z,18.15
2023-02-13T12:56:06.712Z,17.17
2023-02-13T12:58:42.495Z,17.15
2023-02-13T13:01:17.947Z,17.10
2023-02-13T13:13:07.705Z,18.13
2023-02-13T13:15:34.217Z,15.43
2023-02-13T13:18:08.224Z,16.20
2023-02-13T13:20:41.812Z,18.02
2023-02-13T13:23:13.535Z,15.98
2023-02-13T13:25:55.399Z,15.38
2023-02-13T13:28:23.076Z,15.18
2023-02-13T13:30:49.768Z,17.15
2023-02-13T13:33:16.624Z,15.30
2023-02-13T13:35:46.239Z,15.98
2023-02-13T13:38:17.399Z,16.08
2023-02-13T13:40:57.055Z,15.85
2023-02-13T13:43:42.244Z,14.35
2023-02-13T13:46:12.312Z,15.85
2023-02-13T13:48:57.605Z,15.60
2023-02-13T13:51:24.566Z,16.17
2023-02-13T13:54:03.075Z,16.42
2023-02-13T13:56:52.616Z,13.68
2023-02-13T13:59:34.396Z,16.63
2023-02-13T14:02:18.943Z,14.70
2023-02-13T14:05:00.567Z,16.30
2023-02-13T14:07:33.407Z,15.75
2023-02-13T14:09:59.858Z,13.90
2023-02-13T14:12:29.465Z,15.13
2023-02-13T14:14:59.535Z,18.45
2023-02-13T14:17:44.093Z,15.60
2023-02-13T14:20:22.648Z,15.10
2023-02-13T14:22:49.197Z,14.43
2023-02-13T14:25:23.373Z,16.67
2023-02-13T14:28:00.711Z,14.73
2023-02-13T14:30:29.223Z,15.23
2023-02-13T14:32:56.110Z,16.10
2023-02-13T14:35:25.492Z,14.75
2023-02-13T14:37:54.113Z,15.27
2023-02-13T14:40:22.166Z,14.68
2023-02-13T14:42:54.065Z,15.38
2023-02-13T14:45:32.514Z,13.70
2023-02-13T14:48:03.552Z,15.98
2023-02-13T14:50:31.806Z,14.80
2023-02-13T14:53:00.654Z,14.82
2023-02-13T14:55:38.436Z,16.42
2023-02-13T14:58:16.743Z,16.48
2023-02-13T15:00:45.918Z,15.85
2023-02-13T15:03:29.703Z,15.20
2023-02-13T15:06:04.159Z,15.18
2023-02-13T15:08:38.485Z,16.40
2023-02-13T15:11:24.966Z,16.08
2023-02-13T15:13:51.450Z,16.42
2023-02-13T15:16:19.174Z,15.30
2023-02-13T15:18:48.672Z,17.63
2023-02-13T15:21:16.466Z,14.90
2023-02-13T15:23:43.203Z,15.30
2023-02-13T15:26:09.900Z,15.35
2023-02-13T15:28:36.621Z,16.33
2023-02-13T15:31:07.966Z,17.17
2023-02-13T15:33:38.101Z,16.60
2023-02-13T15:36:06.365Z,16.30
2023-02-13T15:38:34.185Z,15.13
2023-02-13T15:41:03.096Z,15.95
2023-02-13T15:43:37.582Z,17.10
2023-02-13T15:46:08.641Z,15.23
2023-02-13T15:48:35.660Z,17.60
2023-02-13T15:51:02.685Z,15.48
2023-02-13T15:53:30.044Z,14.68
2023-02-13T15:56:04.164Z,17.20
2023-02-13T15:58:31.959Z,17.10
2023-02-13T16:01:04.781Z,17.42
2023-02-13T16:03:32.137Z,16.63
2023-02-13T16:05:58.741Z,16.63
2023-02-13T16:08:31.338Z,16.92
2023-02-13T16:11:10.077Z,15.70
2023-02-13T16:13:36.788Z,16.30
2023-02-13T16:16:08.685Z,17.08
2023-02-13T16:18:35.286Z,15.98
2023-02-13T16:21:03.231Z,16.20
2023-02-13T16:23:31.007Z,15.85
2023-02-13T16:26:01.412Z,18.17
2023-02-13T16:28:31.800Z,17.83
2023-02-13T16:30:59.978Z,16.92
2023-02-13T16:33:42.420Z,16.85
2023-02-13T16:36:08.868Z,17.23
2023-02-13T16:38:43.022Z,16.55
2023-02-13T16:41:12.301Z,16.50
2023-02-13T16:43:40.358Z,17.70
2023-02-13T16:46:30.197Z,16.52
2023-02-13T16:48:56.800Z,17.52
2023-02-13T16:51:31.709Z,17.33
2023-02-13T16:53:59.233Z,15.93
2023-02-13T16:56:25.897Z,17.45
2023-02-13T16:59:03.916Z,17.88
2023-02-13T17:01:30.528Z,17.88
2023-02-13T17:03:57.147Z,18.10
2023-02-13T17:06:24.719Z,18.90
2023-02-13T17:08:52.778Z,20.92
2023-02-13T17:11:19.861Z,19.80
2023-02-13T17:13:46.369Z,19.65
2023-02-13T17:16:15.946Z,20.67
2023-02-13T17:18:42.430Z,20.98
2023-02-13T17:21:09.568Z,18.48
2023-02-13T17:23:36.060Z,18.90
2023-02-13T17:26:02.572Z,21.23
2023-02-13T17:28:30.389Z,21.02
2023-02-13T17:30:58.428Z,20.30
2023-02-13T17:33:26.853Z,20.90
2023-02-13T17:35:53.900Z,22.02
2023-02-13T17:38:20.731Z,20.00
2023-02-13T17:40:47.684Z,19.35
2023-02-13T17:43:15.741Z,23.42
2023-02-13T17:45:42.725Z,20.23
2023-02-13T17:48:09.422Z,22.85
2023-02-13T17:50:36.178Z,19.98
2023-02-13T17:53:06.222Z,20.85
2023-02-13T17:55:33.413Z,22.35
2023-02-13T17:58:00.140Z,20.38
2023-02-13T18:00:28.147Z,20.95
2023-02-13T18:02:54.666Z,19.45
2023-02-13T18:05:21.272Z,21.98
2023-02-13T18:07:48.034Z,20.92
2023-02-13T18:10:16.221Z,21.13
2023-02-13T18:12:42.958Z,21.25
2023-02-13T18:15:10.316Z,22.23
2023-02-13T18:17:37.354Z,21.00
2023-02-13T18:20:04.873Z,21.52
2023-02-13T18:22:31.373Z,22.58
2023-02-13T18:24:57.968Z,20.35
2023-02-13T18:27:26.370Z,19.48
2023-02-13T18:29:53.757Z,25.63
2023-02-13T18:32:20.245Z,19.98
2023-02-13T18:34:46.766Z,21.25
2023-02-13T18:37:13.501Z,21.95
2023-02-13T18:39:40.244Z,22.55
2023-02-13T18:42:06.817Z,20.70
2023-02-13T18:44:33.429Z,19.83
2023-02-13T18:47:00.284Z,23.80
2023-02-13T18:49:26.906Z,19.13
2023-02-13T18:51:53.418Z,27.02
2023-02-13T18:54:20.031Z,22.20
2023-02-13T18:56:46.595Z,22.63
2023-02-13T18:59:13.297Z,22.48
2023-02-13T19:01:40.302Z,22.05
2023-02-13T19:04:07.172Z,21.90
2023-02-13T19:06:34.011Z,25.38
2023-02-13T19:09:00.668Z,21.77
2023-02-13T19:11:27.526Z,22.50
2023-02-13T19:13:55.098Z,24.15
2023-02-13T19:16:21.981Z,25.00
2023-02-13T19:18:52.154Z,22.65
2023-02-13T19:21:19.266Z,24.40
2023-02-13T19:23:45.876Z,23.35
2023-02-13T19:26:13.839Z,22.42
2023-02-13T19:28:40.506Z,26.05
2023-02-13T19:31:12.164Z,23.52
2023-02-13T19:33:38.894Z,22.75
2023-02-13T19:36:08.186Z,25.08
2023-02-13T19:38:34.654Z,23.60
2023-02-13T19:41:04.691Z,24.55
2023-02-13T19:43:31.308Z,23.90
2023-02-13T19:46:01.681Z,24.70
2023-02-13T19:48:28.260Z,25.05
2023-02-13T19:50:54.786Z,31.88
2023-02-13T19:53:21.249Z,26.08
2023-02-13T19:55:47.749Z,23.92
2023-02-13T19:58:14.386Z,26.40
2023-02-13T20:00:41.058Z,189.57
2023-02-13T20:03:07.635Z,491.02
2023-02-13T20:05:40.344Z,355.98
2023-02-13T20:08:06.831Z,79.72
2023-02-13T20:10:33.360Z,54.47
2023-02-13T20:13:00.462Z,48.38
2023-02-13T20:15:27.633Z,39.92
2023-02-13T20:17:54.069Z,38.03
2023-02-13T20:20:20.918Z,39.15
2023-02-13T20:22:50.600Z,45.13
2023-02-13T20:25:18.680Z,30.40
2023-02-13T20:27:45.402Z,32.05
2023-02-13T20:30:16.030Z,29.33
2023-02-13T20:32:43.965Z,28.65
2023-02-13T20:35:10.534Z,28.10
2023-02-13T20:37:37.287Z,27.98
2023-02-13T20:40:04.017Z,28.15
2023-02-13T20:42:32.448Z,28.27
2023-02-13T20:44:59.098Z,31.90
2023-02-13T20:47:25.613Z,29.52
2023-02-13T20:49:52.173Z,42.75
2023-02-13T20:52:18.674Z,38.58
2023-02-13T20:54:45.192Z,43.53
2023-02-13T20:57:13.356Z,28.83
2023-02-13T20:59:43.624Z,30.80
2023-02-13T21:02:11.866Z,28.65
2023-02-13T21:04:38.985Z,27.90
2023-02-13T21:07:09.520Z,27.63
2023-02-13T21:09:37.742Z,30.05
2023-02-13T21:12:05.060Z,29.50
2023-02-13T21:14:33.877Z,28.67
2023-02-13T21:17:02.403Z,28.75
2023-02-13T21:19:31.291Z,25.27
2023-02-13T21:22:12.246Z,28.08
2023-02-13T21:24:42.751Z,27.40
2023-02-13T21:27:11.464Z,26.13
2023-02-13T21:29:39.262Z,28.48
2023-02-13T21:32:07.521Z,25.10
2023-02-13T21:34:35.483Z,24.85
2023-02-13T21:37:03.217Z,25.95
2023-02-13T21:39:29.816Z,26.15
2023-02-13T21:41:56.377Z,25.08
2023-02-13T21:44:22.856Z,35.10
2023-02-13T21:46:49.870Z,32.67
2023-02-13T21:49:18.710Z,27.70
2023-02-13T21:51:45.587Z,25.17
2023-02-13T21:54:12.529Z,24.73
2023-02-13T21:56:40.208Z,25.80
2023-02-13T21:59:07.130Z,24.13
2023-02-13T22:01:35.245Z,25.77
2023-02-13T22:04:03.516Z,26.08
2023-02-13T22:06:30.950Z,24.08
2023-02-13T22:08:58.295Z,29.02
2023-02-13T22:11:25.292Z,23.77
2023-02-13T22:13:54.187Z,23.77
2023-02-13T22:16:20.696Z,26.17
2023-02-13T22:18:49.332Z,24.77
2023-02-13T22:21:17.153Z,24.50
2023-02-13T22:23:44.334Z,22.85
2023-02-13T22:26:15.761Z,27.33
2023-02-13T22:28:42.508Z,25.83
2023-02-13T22:31:09.857Z,22.40
2023-02-13T22:33:36.452Z,24.67
2023-02-13T22:36:03.329Z,23.88
2023-02-13T22:38:31.760Z,26.10
2023-02-13T22:41:04.064Z,24.15
2023-02-13T22:43:30.512Z,22.73
2023-02-13T22:46:02.389Z,23.10
2023-02-13T22:48:28.905Z,28.05
2023-02-13T22:50:55.381Z,24.00
2023-02-13T22:53:21.865Z,27.67
2023-02-13T22:55:48.461Z,25.90
2023-02-13T22:58:15.179Z,24.33
2023-02-13T23:00:41.703Z,25.20
2023-02-13T23:03:08.172Z,28.77
2023-02-13T23:05:34.656Z,28.23
2023-02-13T23:08:01.154Z,25.00
2023-02-13T23:10:27.643Z,24.75
2023-02-13T23:12:54.124Z,27.25
2023-02-13T23:15:20.716Z,26.00
2023-02-13T23:18:05.793Z,25.83
2023-02-13T23:20:32.301Z,23.92
2023-02-13T23:22:58.779Z,25.48
2023-02-13T23:25:25.274Z,27.05
2023-02-13T23:27:53.753Z,26.55
2023-02-13T23:30:20.844Z,25.73
2023-02-13T23:32:47.332Z,25.77
2023-02-13T23:35:13.829Z,28.25
2023-02-13T23:37:40.403Z,28.75
2023-02-13T23:40:07.328Z,24.70
2023-02-13T23:42:33.835Z,32.75
2023-02-13T23:45:00.299Z,27.30
2023-02-13T23:47:26.765Z,24.33
2023-02-13T23:49:53.250Z,25.90
2023-02-13T23:52:19.755Z,26.00
2023-02-13T23:54:47.355Z,25.33
2023-02-13T23:57:13.901Z,24.90
2023-02-13T23:59:40.548Z,24.35
